createdAt,value
2017-06-05T00:00:26.578Z,99.99
2017-06-05T00:01:26.585Z,99.99
2017-06-05T00:02:26.559Z,99.99
2017-06-05T00:03:26.578Z,99.99
2017-06-05T00:04:26.221Z,99.99
2017-06-05T00:05:26.534Z,99.99
2017-06-05T00:06:26.526Z,99.99
2017-06-05T00:07:26.198Z,99.99
2017-06-05T00:08:26.189Z,99.99
2017-06-05T00:09:26.502Z,99.99
2017-06-05T00:10:26.174Z,99.99
2017-06-05T00:11:26.480Z,99.99
2017-06-05T00:12:26.176Z,99.99
2017-06-05T00:13:26.465Z,99.99
2017-06-05T00:14:26.143Z,99.99
2017-06-05T00:15:26.448Z,99.99
2017-06-05T00:16:26.117Z,99.99
2017-06-05T00:17:26.453Z,99.99
2017-06-05T00:18:26.423Z,99.99
2017-06-05T00:19:26.428Z,99.99
2017-06-05T00:20:26.081Z,99.99
2017-06-05T00:21:26.398Z,99.99
2017-06-05T00:22:26.388Z,99.99
2017-06-05T00:23:26.062Z,99.99
2017-06-05T00:24:26.405Z,99.99
2017-06-05T00:25:26.071Z,99.99
2017-06-05T00:26:26.353Z,99.99
2017-06-05T00:27:26.768Z,99.99
2017-06-05T00:28:26.351Z,99.99
2017-06-05T00:29:26.005Z,99.99
2017-06-05T00:30:26.337Z,99.99
2017-06-05T00:31:25.988Z,99.99
2017-06-05T00:32:26.308Z,99.99
2017-06-05T00:33:26.300Z,99.99
2017-06-05T00:34:26.289Z,99.99
2017-06-05T00:35:26.276Z,99.99
2017-06-05T00:36:25.945Z,99.99
2017-06-05T00:37:26.270Z,99.99
2017-06-05T00:38:26.251Z,99.99
2017-06-05T00:39:25.934Z,99.99
2017-06-05T00:40:25.933Z,99.99
2017-06-05T00:41:25.902Z,99.99
2017-06-05T00:42:26.214Z,99.99
2017-06-05T00:43:26.251Z,99.99
2017-06-05T00:44:25.882Z,99.99
2017-06-05T00:45:26.189Z,99.99
2017-06-05T00:46:26.220Z,99.99
2017-06-05T00:47:26.196Z,99.99
2017-06-05T00:48:26.168Z,99.99
2017-06-05T00:49:26.160Z,99.99
2017-06-05T00:50:25.823Z,99.99
2017-06-05T00:51:26.137Z,99.99
2017-06-05T00:52:26.142Z,99.99
2017-06-05T00:53:26.121Z,99.99
2017-06-05T00:54:26.110Z,99.99
2017-06-05T00:55:26.105Z,99.99
2017-06-05T00:56:25.773Z,99.99
2017-06-05T00:57:26.088Z,99.99
2017-06-05T00:58:26.099Z,99.99
2017-06-05T00:59:26.070Z,99.99
2017-06-05T01:00:26.094Z,99.99
2017-06-05T01:01:26.050Z,99.99
2017-06-05T01:02:25.725Z,99.99
2017-06-05T01:03:26.033Z,99.99
2017-06-05T01:04:26.028Z,99.99
2017-06-05T01:05:25.694Z,99.99
2017-06-05T01:06:25.693Z,99.99
2017-06-05T01:07:26.006Z,99.99
2017-06-05T01:08:25.995Z,99.99
2017-06-05T01:09:25.657Z,99.99
2017-06-05T01:10:25.971Z,99.99
2017-06-05T01:11:25.964Z,99.99
2017-06-05T01:12:25.976Z,99.99
2017-06-05T01:13:25.945Z,99.99
2017-06-05T01:14:25.934Z,99.99
2017-06-05T01:15:25.930Z,99.99
2017-06-05T01:16:27.721Z,99.99
2017-06-05T01:17:25.913Z,99.99
2017-06-05T01:18:25.578Z,99.99
2017-06-05T01:19:25.572Z,99.99
2017-06-05T01:20:25.886Z,99.99
2017-06-05T01:21:25.570Z,99.99
2017-06-05T01:22:25.869Z,99.99
2017-06-05T01:23:25.873Z,99.99
2017-06-05T01:24:25.850Z,99.99
2017-06-05T01:25:25.844Z,99.99
2017-06-05T01:26:25.851Z,99.99
2017-06-05T01:27:25.501Z,99.99
2017-06-05T01:28:25.507Z,99.99
2017-06-05T01:29:25.835Z,99.99
2017-06-05T01:30:25.472Z,99.99
2017-06-05T01:31:25.463Z,99.99
2017-06-05T01:32:25.776Z,99.99
2017-06-05T01:33:25.445Z,99.99
2017-06-05T01:34:25.437Z,99.99
2017-06-05T01:35:25.427Z,99.99
2017-06-05T01:36:25.740Z,99.99
2017-06-05T01:37:25.734Z,99.99
2017-06-05T01:38:25.725Z,99.99
2017-06-05T01:39:25.745Z,99.99
2017-06-05T01:40:25.704Z,99.99
2017-06-05T01:41:25.708Z,99.99
2017-06-05T01:42:25.685Z,99.99
2017-06-05T01:43:25.356Z,99.99
2017-06-05T01:44:25.346Z,99.99
2017-06-05T01:45:25.678Z,99.99
2017-06-05T01:46:25.649Z,99.99
2017-06-05T01:47:25.643Z,99.99
2017-06-05T01:48:25.653Z,99.99
2017-06-05T01:49:25.643Z,99.99
2017-06-05T01:50:25.612Z,99.99
2017-06-05T01:51:25.297Z,99.99
2017-06-05T01:52:25.281Z,99.99
2017-06-05T01:53:25.583Z,99.99
2017-06-05T01:54:25.578Z,99.99
2017-06-05T01:55:25.255Z,99.99
2017-06-05T01:56:25.235Z,99.99
2017-06-05T01:57:25.576Z,99.99
2017-06-05T01:58:25.543Z,99.99
2017-06-05T01:59:25.530Z,99.99
2017-06-05T02:00:25.199Z,99.99
2017-06-05T02:01:25.512Z,99.99
2017-06-05T02:02:26.170Z,99.99
2017-06-05T02:03:25.956Z,99.99
2017-06-05T02:04:25.165Z,99.99
2017-06-05T02:05:25.152Z,99.99
2017-06-05T02:06:25.462Z,99.99
2017-06-05T02:07:25.455Z,99.99
2017-06-05T02:08:25.448Z,99.99
2017-06-05T02:09:25.456Z,99.99
2017-06-05T02:10:25.445Z,99.99
2017-06-05T02:11:26.003Z,99.99
2017-06-05T02:12:25.468Z,99.99
2017-06-05T02:13:25.407Z,99.99
2017-06-05T02:14:25.120Z,99.99
2017-06-05T02:15:25.379Z,99.99
2017-06-05T02:16:25.372Z,99.99
2017-06-05T02:17:25.813Z,99.99
2017-06-05T02:18:25.902Z,99.99
2017-06-05T02:19:25.757Z,99.99
2017-06-05T02:20:25.513Z,99.99
2017-06-05T02:21:25.336Z,99.99
2017-06-05T02:22:25.318Z,99.99
2017-06-05T02:23:24.987Z,99.99
2017-06-05T02:24:25.400Z,99.99
2017-06-05T02:25:25.948Z,99.99
2017-06-05T02:26:25.342Z,99.99
2017-06-05T02:27:25.268Z,99.99
2017-06-05T02:28:24.937Z,99.99
2017-06-05T02:29:24.951Z,99.99
2017-06-05T02:30:25.264Z,99.99
2017-06-05T02:31:25.103Z,99.99
2017-06-05T02:32:25.326Z,99.99
2017-06-05T02:33:25.218Z,99.99
2017-06-05T02:34:25.656Z,99.99
2017-06-05T02:35:25.242Z,99.99
2017-06-05T02:36:25.190Z,99.99
2017-06-05T02:37:25.176Z,99.99
2017-06-05T02:38:24.841Z,99.99
2017-06-05T02:39:25.585Z,99.99
2017-06-05T02:40:25.151Z,99.99
2017-06-05T02:41:25.148Z,99.99
2017-06-05T02:42:25.125Z,99.99
2017-06-05T02:43:25.115Z,99.99
2017-06-05T02:44:25.108Z,99.99
2017-06-05T02:45:25.642Z,99.99
2017-06-05T02:46:25.092Z,99.99
2017-06-05T02:47:25.094Z,99.99
2017-06-05T02:48:25.071Z,99.99
2017-06-05T02:49:25.600Z,99.99
2017-06-05T02:50:25.429Z,99.99
2017-06-05T02:51:25.041Z,99.99
2017-06-05T02:52:25.082Z,99.99
2017-06-05T02:53:25.028Z,99.99
2017-06-05T02:54:25.011Z,99.99
2017-06-05T02:55:25.577Z,99.99
2017-06-05T02:56:24.966Z,99.99
2017-06-05T02:57:24.986Z,99.99
2017-06-05T02:58:24.973Z,99.99
2017-06-05T02:59:24.963Z,99.99
2017-06-05T03:00:25.313Z,99.99
2017-06-05T03:01:25.055Z,99.99
2017-06-05T03:02:25.111Z,99.99
2017-06-05T03:03:24.944Z,99.99
2017-06-05T03:04:25.133Z,99.99
2017-06-05T03:05:24.602Z,99.99
2017-06-05T03:06:24.919Z,99.99
2017-06-05T03:07:24.568Z,99.99
2017-06-05T03:08:24.902Z,99.99
2017-06-05T03:09:25.348Z,99.99
2017-06-05T03:10:24.861Z,99.99
2017-06-05T03:11:24.850Z,99.99
2017-06-05T03:12:25.428Z,99.99
2017-06-05T03:13:24.834Z,99.99
2017-06-05T03:14:24.841Z,99.99
2017-06-05T03:15:24.815Z,99.99
2017-06-05T03:16:25.433Z,99.99
2017-06-05T03:17:24.841Z,99.99
2017-06-05T03:18:24.463Z,99.99
2017-06-05T03:19:24.797Z,99.99
2017-06-05T03:20:24.769Z,99.99
2017-06-05T03:21:24.787Z,99.99
2017-06-05T03:22:24.754Z,99.99
2017-06-05T03:23:25.269Z,99.99
2017-06-05T03:24:24.411Z,99.99
2017-06-05T03:25:24.400Z,99.99
2017-06-05T03:26:24.715Z,99.99
2017-06-05T03:27:24.705Z,99.99
2017-06-05T03:28:24.373Z,99.99
2017-06-05T03:29:24.690Z,99.99
2017-06-05T03:30:24.695Z,99.99
2017-06-05T03:31:24.668Z,99.99
2017-06-05T03:32:24.342Z,99.99
2017-06-05T03:33:24.649Z,99.99
2017-06-05T03:34:24.954Z,99.99
2017-06-05T03:35:25.192Z,99.99
2017-06-05T03:36:24.620Z,99.99
2017-06-05T03:37:24.611Z,99.99
2017-06-05T03:38:24.605Z,99.99
2017-06-05T03:39:24.595Z,99.99
2017-06-05T03:40:24.506Z,99.99
2017-06-05T03:41:24.578Z,99.99
2017-06-05T03:42:24.566Z,99.99
2017-06-05T03:43:24.558Z,99.99
2017-06-05T03:44:24.852Z,99.99
2017-06-05T03:45:24.360Z,99.99
2017-06-05T03:46:24.229Z,99.99
2017-06-05T03:47:24.251Z,99.99
2017-06-05T03:48:24.199Z,99.99
2017-06-05T03:49:25.062Z,99.99
2017-06-05T03:50:24.652Z,99.99
2017-06-05T03:51:24.486Z,99.99
2017-06-05T03:52:24.157Z,99.99
2017-06-05T03:53:24.494Z,99.99
2017-06-05T03:54:24.461Z,99.99
2017-06-05T03:55:24.467Z,99.99
2017-06-05T03:56:24.443Z,99.99
2017-06-05T03:57:24.439Z,99.99
2017-06-05T03:58:24.106Z,99.99
2017-06-05T03:59:25.008Z,99.99
2017-06-05T04:00:24.087Z,99.99
2017-06-05T04:01:24.399Z,99.99
2017-06-05T04:02:24.427Z,99.99
2017-06-05T04:03:24.385Z,99.99
2017-06-05T04:04:24.756Z,99.99
2017-06-05T04:05:24.537Z,99.99
2017-06-05T04:06:24.529Z,99.99
2017-06-05T04:07:24.350Z,99.99
2017-06-05T04:08:24.356Z,99.99
2017-06-05T04:09:24.903Z,99.99
2017-06-05T04:10:24.389Z,99.99
2017-06-05T04:11:24.338Z,99.99
2017-06-05T04:12:24.311Z,99.99
2017-06-05T04:13:24.552Z,99.99
2017-06-05T04:14:24.809Z,99.99
2017-06-05T04:15:24.289Z,99.99
2017-06-05T04:16:24.293Z,99.99
2017-06-05T04:17:24.268Z,99.99
2017-06-05T04:18:24.724Z,99.99
2017-06-05T04:19:24.284Z,99.99
2017-06-05T04:20:24.249Z,99.99
2017-06-05T04:21:24.410Z,99.99
2017-06-05T04:22:24.065Z,99.99
2017-06-05T04:23:23.901Z,99.99
2017-06-05T04:24:24.216Z,99.99
2017-06-05T04:25:24.208Z,99.99
2017-06-05T04:26:24.469Z,99.99
2017-06-05T04:27:24.193Z,99.99
2017-06-05T04:28:23.861Z,99.99
2017-06-05T04:29:24.177Z,99.99
2017-06-05T04:30:24.170Z,99.99
2017-06-05T04:31:24.252Z,99.99
2017-06-05T04:32:24.237Z,99.99
2017-06-05T04:33:24.143Z,99.99
2017-06-05T04:34:24.141Z,99.99
2017-06-05T04:35:24.135Z,99.99
2017-06-05T04:36:24.123Z,99.99
2017-06-05T04:37:24.258Z,99.99
2017-06-05T04:38:23.789Z,99.99
2017-06-05T04:39:24.621Z,99.99
2017-06-05T04:40:24.093Z,99.99
2017-06-05T04:41:24.136Z,99.99
2017-06-05T04:42:24.096Z,99.99
2017-06-05T04:43:24.456Z,99.99
2017-06-05T04:44:24.589Z,99.99
2017-06-05T04:45:23.911Z,99.99
2017-06-05T04:46:24.053Z,99.99
2017-06-05T04:47:24.044Z,99.99
2017-06-05T04:48:23.711Z,99.99
2017-06-05T04:49:24.027Z,99.99
2017-06-05T04:50:24.391Z,99.99
2017-06-05T04:51:24.146Z,99.99
2017-06-05T04:52:23.684Z,99.99
2017-06-05T04:53:23.678Z,99.99
2017-06-05T04:54:23.993Z,99.99
2017-06-05T04:55:24.561Z,99.99
2017-06-05T04:56:24.325Z,99.99
2017-06-05T04:57:23.789Z,99.99
2017-06-05T04:58:23.965Z,99.99
2017-06-05T04:59:24.016Z,99.99
2017-06-05T05:00:23.957Z,99.99
2017-06-05T05:01:23.947Z,99.99
2017-06-05T05:02:23.963Z,99.99
2017-06-05T05:03:23.717Z,99.99
2017-06-05T05:04:23.935Z,99.99
2017-06-05T05:05:23.921Z,99.99
2017-06-05T05:06:23.917Z,99.99
2017-06-05T05:07:24.034Z,99.99
2017-06-05T05:08:23.927Z,99.99
2017-06-05T05:09:23.900Z,99.99
2017-06-05T05:10:23.896Z,99.99
2017-06-05T05:11:24.008Z,99.99
2017-06-05T05:12:23.883Z,99.99
2017-06-05T05:13:23.879Z,99.99
2017-06-05T05:14:23.874Z,99.99
2017-06-05T05:15:23.880Z,99.99
2017-06-05T05:16:24.316Z,99.99
2017-06-05T05:17:24.372Z,99.99
2017-06-05T05:18:23.550Z,99.99
2017-06-05T05:19:23.847Z,99.99
2017-06-05T05:20:23.868Z,99.99
2017-06-05T05:21:23.833Z,99.99
2017-06-05T05:22:23.956Z,99.99
2017-06-05T05:23:23.825Z,99.99
2017-06-05T05:24:23.527Z,99.99
2017-06-05T05:25:23.497Z,99.99
2017-06-05T05:26:23.811Z,99.99
2017-06-05T05:27:23.626Z,99.99
2017-06-05T05:28:23.917Z,99.99
2017-06-05T05:29:23.795Z,99.99
2017-06-05T05:30:23.808Z,99.99
2017-06-05T05:31:23.791Z,99.99
2017-06-05T05:32:23.867Z,99.99
2017-06-05T05:33:23.780Z,99.99
2017-06-05T05:34:23.775Z,99.99
2017-06-05T05:35:23.780Z,99.99
2017-06-05T05:36:23.765Z,99.99
2017-06-05T05:37:23.767Z,99.99
2017-06-05T05:38:23.756Z,99.99
2017-06-05T05:39:23.770Z,99.99
2017-06-05T05:40:23.744Z,99.99
2017-06-05T05:41:23.743Z,99.99
2017-06-05T05:42:23.461Z,99.99
2017-06-05T05:43:23.415Z,99.99
2017-06-05T05:44:23.733Z,99.99
2017-06-05T05:45:23.759Z,99.99
2017-06-05T05:46:23.727Z,99.99
2017-06-05T05:47:23.728Z,99.99
2017-06-05T05:48:23.720Z,99.99
2017-06-05T05:49:23.724Z,99.99
2017-06-05T05:50:23.709Z,99.99
2017-06-05T05:51:23.388Z,99.99
2017-06-05T05:52:23.712Z,99.99
2017-06-05T05:53:23.737Z,99.99
2017-06-05T05:54:23.379Z,99.99
2017-06-05T05:55:23.694Z,99.99
2017-06-05T05:56:23.694Z,99.99
2017-06-05T05:57:23.367Z,99.99
2017-06-05T05:58:23.684Z,99.99
2017-06-05T05:59:23.683Z,99.99
2017-06-05T06:00:23.357Z,99.99
2017-06-05T06:01:23.368Z,99.01
2017-06-05T06:02:23.670Z,99.19
2017-06-05T06:03:23.671Z,98.72
2017-06-05T06:04:23.667Z,97.56
2017-06-05T06:05:23.664Z,96.03
2017-06-05T06:06:23.336Z,94.02
2017-06-05T06:07:23.659Z,93.16
2017-06-05T06:08:23.333Z,93.06
2017-06-05T06:09:23.652Z,91.96
2017-06-05T06:10:23.649Z,92.54
2017-06-05T06:11:23.649Z,92.63
2017-06-05T06:12:23.644Z,91.96
2017-06-05T06:13:23.674Z,91.96
2017-06-05T06:14:23.640Z,91.48
2017-06-05T06:15:23.313Z,90.9
2017-06-05T06:16:23.761Z,90.56
2017-06-05T06:17:23.345Z,89.7
2017-06-05T06:18:23.772Z,90.08
2017-06-05T06:19:23.741Z,89.89
2017-06-05T06:20:23.388Z,88.93
2017-06-05T06:21:23.732Z,87.78
2017-06-05T06:22:23.787Z,87.49
2017-06-05T06:23:23.742Z,87.4
2017-06-05T06:24:23.636Z,87.88
2017-06-05T06:25:23.740Z,88.79
2017-06-05T06:26:23.643Z,87.78
2017-06-05T06:27:23.657Z,86.68
2017-06-05T06:28:23.737Z,86.38
2017-06-05T06:29:23.688Z,80.82
2017-06-05T06:30:23.313Z,81.87
2017-06-05T06:31:23.336Z,82.26
2017-06-05T06:32:23.683Z,83.22
2017-06-05T06:33:23.692Z,84.18
2017-06-05T06:34:23.660Z,84.18
2017-06-05T06:35:23.686Z,82.49
2017-06-05T06:36:23.295Z,80.73
2017-06-05T06:37:23.668Z,80.57
2017-06-05T06:38:23.379Z,80.63
2017-06-05T06:39:23.330Z,79.61
2017-06-05T06:40:23.357Z,77.11
2017-06-05T06:41:23.663Z,76.44
2017-06-05T06:42:23.389Z,76.34
2017-06-05T06:43:23.342Z,76.92
2017-06-05T06:44:23.982Z,77.11
2017-06-05T06:45:23.660Z,76.64
2017-06-05T06:46:23.358Z,76.34
2017-06-05T06:47:23.987Z,75.9
2017-06-05T06:48:23.605Z,75.04
2017-06-05T06:49:23.325Z,74.37
2017-06-05T06:50:23.669Z,73.5
2017-06-05T06:51:23.466Z,73.41
2017-06-05T06:52:23.354Z,73.69
2017-06-05T06:53:23.359Z,71.87
2017-06-05T06:54:23.658Z,71.67
2017-06-05T06:55:23.655Z,70.75
2017-06-05T06:56:23.335Z,69.4
2017-06-05T06:57:23.673Z,70.23
2017-06-05T06:58:23.589Z,71.33
2017-06-05T06:59:23.843Z,71.81
2017-06-05T07:00:23.656Z,72.29
2017-06-05T07:01:23.665Z,74.88
2017-06-05T07:02:23.636Z,75.65
2017-06-05T07:03:23.654Z,72.96
2017-06-05T07:04:23.333Z,71.14
2017-06-05T07:05:23.677Z,71.42
2017-06-05T07:06:23.592Z,72.38
2017-06-05T07:07:23.766Z,74.02
2017-06-05T07:08:23.644Z,74.6
2017-06-05T07:09:23.604Z,73.63
2017-06-05T07:10:23.332Z,72.09
2017-06-05T07:11:23.327Z,70.72
2017-06-05T07:12:23.640Z,69.6
2017-06-05T07:13:23.694Z,69.21
2017-06-05T07:14:23.707Z,71.23
2017-06-05T07:15:23.287Z,69.89
2017-06-05T07:16:23.348Z,68.25
2017-06-05T07:17:23.624Z,68.63
2017-06-05T07:18:23.617Z,70.56
2017-06-05T07:19:23.636Z,69.63
2017-06-05T07:20:23.567Z,68.96
2017-06-05T07:21:23.583Z,68.29
2017-06-05T07:22:23.564Z,68.67
2017-06-05T07:23:23.568Z,66.27
2017-06-05T07:24:23.587Z,66.55
2017-06-05T07:25:23.569Z,66.27
2017-06-05T07:26:23.578Z,66.27
2017-06-05T07:27:23.573Z,66.49
2017-06-05T07:28:23.240Z,67.26
2017-06-05T07:29:23.564Z,66.3
2017-06-05T07:30:23.241Z,64.28
2017-06-05T07:31:23.579Z,64.02
2017-06-05T07:32:23.562Z,60.2
2017-06-05T07:33:23.249Z,62.03
2017-06-05T07:34:23.568Z,60.39
2017-06-05T07:35:23.570Z,60.39
2017-06-05T07:36:23.582Z,60.32
2017-06-05T07:37:23.567Z,60.42
2017-06-05T07:38:23.566Z,59.94
2017-06-05T07:39:23.573Z,59.68
2017-06-05T07:40:23.570Z,58.42
2017-06-05T07:41:23.570Z,56.91
2017-06-05T07:42:23.577Z,56.91
2017-06-05T07:43:23.250Z,56.91
2017-06-05T07:44:23.263Z,56.91
2017-06-05T07:45:23.572Z,57.1
2017-06-05T07:46:23.256Z,57.01
2017-06-05T07:47:23.576Z,55.68
2017-06-05T07:48:23.255Z,55.59
2017-06-05T07:49:23.258Z,58.1
2017-06-05T07:50:23.580Z,58.03
2017-06-05T07:51:23.275Z,57.93
2017-06-05T07:52:23.260Z,57.06
2017-06-05T07:53:23.262Z,55.74
2017-06-05T07:54:23.278Z,54
2017-06-05T07:55:23.589Z,53.03
2017-06-05T07:56:23.278Z,52.84
2017-06-05T07:57:23.282Z,54.51
2017-06-05T07:58:23.592Z,53.93
2017-06-05T07:59:23.599Z,52.77
2017-06-05T08:00:23.277Z,52.77
2017-06-05T08:01:23.279Z,54.51
2017-06-05T08:02:23.601Z,52.77
2017-06-05T08:03:23.606Z,53.06
2017-06-05T08:04:23.616Z,51.23
2017-06-05T08:05:23.613Z,50.16
2017-06-05T08:06:23.623Z,50.91
2017-06-05T08:07:23.293Z,52.07
2017-06-05T08:08:23.616Z,53.39
2017-06-05T08:09:23.623Z,55.1
2017-06-05T08:10:23.298Z,57.14
2017-06-05T08:11:23.631Z,58.07
2017-06-05T08:12:23.641Z,58.81
2017-06-05T08:13:23.329Z,59.97
2017-06-05T08:14:23.636Z,60.61
2017-06-05T08:15:23.627Z,61.93
2017-06-05T08:16:23.325Z,60.39
2017-06-05T08:17:23.310Z,61.16
2017-06-05T08:18:23.634Z,63.44
2017-06-05T08:19:23.325Z,63.73
2017-06-05T08:20:23.640Z,64.89
2017-06-05T08:21:23.640Z,64.02
2017-06-05T08:22:23.316Z,63.82
2017-06-05T08:23:23.646Z,61.97
2017-06-05T08:24:23.323Z,62.45
2017-06-05T08:25:23.653Z,64.76
2017-06-05T08:26:23.641Z,65.05
2017-06-05T08:27:23.646Z,62.83
2017-06-05T08:28:23.644Z,63.22
2017-06-05T08:29:23.645Z,62.06
2017-06-05T08:30:23.644Z,62.93
2017-06-05T08:31:23.653Z,61.68
2017-06-05T08:32:23.341Z,61.97
2017-06-05T08:33:23.648Z,63.89
2017-06-05T08:34:23.681Z,66.1
2017-06-05T08:35:23.327Z,65.91
2017-06-05T08:36:23.329Z,63.51
2017-06-05T08:37:23.328Z,62.74
2017-06-05T08:38:23.330Z,62.74
2017-06-05T08:39:23.332Z,62.19
2017-06-05T08:40:23.655Z,62.16
2017-06-05T08:41:23.653Z,60.17
2017-06-05T08:42:23.661Z,61.04
2017-06-05T08:43:23.660Z,61.42
2017-06-05T08:44:23.334Z,61.8
2017-06-05T08:45:23.338Z,61.04
2017-06-05T08:46:23.659Z,60.3
2017-06-05T08:47:23.348Z,61.35
2017-06-05T08:48:23.710Z,60.39
2017-06-05T08:49:23.663Z,59.88
2017-06-05T08:50:23.661Z,60.75
2017-06-05T08:51:23.682Z,60.36
2017-06-05T08:52:23.679Z,58.53
2017-06-05T08:53:23.664Z,57.67
2017-06-05T08:54:23.343Z,60.07
2017-06-05T08:55:23.342Z,61.22
2017-06-05T08:56:23.669Z,62.29
2017-06-05T08:57:23.667Z,62.06
2017-06-05T08:58:23.364Z,60.14
2017-06-05T08:59:23.351Z,60.72
2017-06-05T09:00:23.682Z,60.04
2017-06-05T09:01:23.680Z,58.22
2017-06-05T09:02:23.683Z,57.83
2017-06-05T09:03:23.680Z,56.87
2017-06-05T09:04:23.675Z,57.54
2017-06-05T09:05:23.678Z,54.36
2017-06-05T09:06:23.361Z,53.4
2017-06-05T09:07:23.685Z,54.17
2017-06-05T09:08:23.678Z,55.04
2017-06-05T09:09:23.678Z,55.81
2017-06-05T09:10:23.675Z,55.9
2017-06-05T09:11:23.353Z,53.59
2017-06-05T09:12:23.671Z,53.31
2017-06-05T09:13:23.683Z,53.31
2017-06-05T09:14:23.395Z,55.35
2017-06-05T09:15:23.695Z,55.26
2017-06-05T09:16:23.677Z,54.49
2017-06-05T09:17:23.352Z,53.62
2017-06-05T09:18:23.355Z,52.78
2017-06-05T09:19:23.354Z,51.72
2017-06-05T09:20:23.678Z,52.08
2017-06-05T09:21:23.680Z,52.18
2017-06-05T09:22:23.679Z,53.27
2017-06-05T09:23:23.704Z,49.89
2017-06-05T09:24:23.356Z,50.47
2017-06-05T09:25:23.704Z,49.22
2017-06-05T09:26:23.682Z,48.83
2017-06-05T09:27:23.687Z,49.51
2017-06-05T09:28:23.700Z,49.7
2017-06-05T09:29:23.684Z,49.53
2017-06-05T09:30:23.686Z,55.22
2017-06-05T09:31:23.686Z,53
2017-06-05T09:32:23.686Z,53.61
2017-06-05T09:33:23.688Z,47.22
2017-06-05T09:34:23.699Z,48.3
2017-06-05T09:35:23.373Z,47.14
2017-06-05T09:36:23.369Z,46.86
2017-06-05T09:37:23.694Z,45.79
2017-06-05T09:38:23.375Z,47.85
2017-06-05T09:39:23.695Z,50.06
2017-06-05T09:40:23.408Z,48.71
2017-06-05T09:41:23.708Z,43.89
2017-06-05T09:42:23.708Z,45.24
2017-06-05T09:43:23.709Z,47.65
2017-06-05T09:44:23.729Z,46.59
2017-06-05T09:45:23.706Z,46.23
2017-06-05T09:46:23.737Z,46.03
2017-06-05T09:47:23.707Z,47.09
2017-06-05T09:48:23.709Z,47.38
2017-06-05T09:49:23.727Z,45.94
2017-06-05T09:50:23.712Z,43.62
2017-06-05T09:51:23.716Z,42.27
2017-06-05T09:52:23.735Z,45.17
2017-06-05T09:53:23.749Z,45.72
2017-06-05T09:54:23.729Z,47.19
2017-06-05T09:55:23.730Z,44.68
2017-06-05T09:56:23.744Z,44.87
2017-06-05T09:57:23.734Z,43.81
2017-06-05T09:58:23.406Z,43.43
2017-06-05T09:59:23.743Z,43.91
2017-06-05T10:00:23.416Z,44.59
2017-06-05T10:01:23.743Z,45.07
2017-06-05T10:02:23.410Z,45.17
2017-06-05T10:03:23.739Z,41.3
2017-06-05T10:04:23.750Z,39.66
2017-06-05T10:05:23.741Z,39.66
2017-06-05T10:06:23.747Z,42.56
2017-06-05T10:07:23.442Z,40.9
2017-06-05T10:08:23.772Z,39.45
2017-06-05T10:09:23.751Z,39.94
2017-06-05T10:10:23.752Z,39.64
2017-06-05T10:11:23.755Z,41.96
2017-06-05T10:12:23.754Z,43.02
2017-06-05T10:13:23.438Z,44.08
2017-06-05T10:14:23.774Z,43.21
2017-06-05T10:15:23.440Z,43.79
2017-06-05T10:16:23.785Z,44.78
2017-06-05T10:17:23.766Z,44.78
2017-06-05T10:18:23.771Z,44.39
2017-06-05T10:19:23.795Z,43.06
2017-06-05T10:20:23.770Z,43.16
2017-06-05T10:21:23.776Z,43.26
2017-06-05T10:22:23.795Z,43.26
2017-06-05T10:23:23.458Z,42.19
2017-06-05T10:24:23.781Z,42.39
2017-06-05T10:25:23.805Z,40.19
2017-06-05T10:26:23.806Z,40.19
2017-06-05T10:27:23.809Z,40.45
2017-06-05T10:28:23.787Z,39.12
2017-06-05T10:29:23.792Z,39.61
2017-06-05T10:30:23.472Z,39.8
2017-06-05T10:31:23.797Z,40.28
2017-06-05T10:32:23.479Z,40.67
2017-06-05T10:33:23.495Z,39.99
2017-06-05T10:34:23.819Z,38.93
2017-06-05T10:35:23.808Z,39.03
2017-06-05T10:36:23.808Z,39.72
2017-06-05T10:37:23.812Z,40.28
2017-06-05T10:38:23.813Z,38.74
2017-06-05T10:39:23.823Z,39.99
2017-06-05T10:40:23.821Z,40.38
2017-06-05T10:41:23.499Z,39.7
2017-06-05T10:42:23.848Z,39.7
2017-06-05T10:43:23.503Z,40.69
2017-06-05T10:44:23.844Z,42.04
2017-06-05T10:45:23.518Z,41.75
2017-06-05T10:46:23.975Z,40.2
2017-06-05T10:47:23.937Z,37.7
2017-06-05T10:48:23.986Z,37.5
2017-06-05T10:49:23.902Z,37.32
2017-06-05T10:50:23.546Z,38.1
2017-06-05T10:51:23.578Z,37.79
2017-06-05T10:52:23.928Z,38.28
2017-06-05T10:53:23.592Z,39.82
2017-06-05T10:54:23.573Z,39.8
2017-06-05T10:55:23.602Z,40.86
2017-06-05T10:56:23.582Z,40.67
2017-06-05T10:57:23.916Z,40.96
2017-06-05T10:58:23.912Z,40.88
2017-06-05T10:59:23.589Z,40.2
2017-06-05T11:00:23.914Z,39.43
2017-06-05T11:01:23.994Z,39.14
2017-06-05T11:02:24.048Z,40.59
2017-06-05T11:03:23.932Z,41.56
2017-06-05T11:04:24.018Z,41.17
2017-06-05T11:05:24.029Z,38.85
2017-06-05T11:06:23.937Z,37.42
2017-06-05T11:07:23.697Z,37.52
2017-06-05T11:08:23.624Z,38
2017-06-05T11:09:23.595Z,37.62
2017-06-05T11:10:23.685Z,38.48
2017-06-05T11:11:24.017Z,40.23
2017-06-05T11:12:23.756Z,38
2017-06-05T11:13:24.022Z,37.63
2017-06-05T11:14:23.990Z,38.39
2017-06-05T11:15:23.622Z,36.07
2017-06-05T11:16:23.679Z,36.16
2017-06-05T11:17:23.954Z,37.81
2017-06-05T11:18:23.676Z,37.52
2017-06-05T11:19:23.818Z,39.16
2017-06-05T11:20:23.697Z,38.68
2017-06-05T11:21:23.989Z,38.29
2017-06-05T11:22:23.624Z,37.15
2017-06-05T11:23:24.070Z,36.96
2017-06-05T11:24:23.635Z,37.04
2017-06-05T11:25:24.018Z,36.66
2017-06-05T11:26:23.956Z,37.63
2017-06-05T11:27:24.003Z,37.82
2017-06-05T11:28:23.657Z,38.29
2017-06-05T11:29:24.047Z,38.58
2017-06-05T11:30:24.040Z,38.89
2017-06-05T11:31:23.731Z,37.54
2017-06-05T11:32:23.729Z,40.73
2017-06-05T11:33:24.039Z,39.18
2017-06-05T11:34:24.051Z,39.47
2017-06-05T11:35:23.728Z,39.18
2017-06-05T11:36:24.096Z,36.08
2017-06-05T11:37:24.032Z,36.55
2017-06-05T11:38:23.723Z,38.29
2017-06-05T11:39:23.733Z,40.9
2017-06-05T11:40:24.047Z,40.81
2017-06-05T11:41:23.776Z,40.13
2017-06-05T11:42:24.085Z,38.97
2017-06-05T11:43:24.178Z,40.42
2017-06-05T11:44:23.762Z,40.42
2017-06-05T11:45:24.056Z,40.71
2017-06-05T11:46:24.147Z,40.98
2017-06-05T11:47:24.037Z,42.52
2017-06-05T11:48:23.801Z,40.59
2017-06-05T11:49:24.063Z,41.56
2017-06-05T11:50:24.101Z,42.02
2017-06-05T11:51:24.090Z,40.59
2017-06-05T11:52:24.088Z,41.54
2017-06-05T11:53:24.479Z,42.21
2017-06-05T11:54:23.825Z,44.24
2017-06-05T11:55:23.746Z,45.59
2017-06-05T11:56:23.844Z,44.15
2017-06-05T11:57:25.678Z,43.95
2017-06-05T11:58:26.655Z,44.15
2017-06-05T11:59:24.100Z,44.24
2017-06-05T12:00:23.820Z,43.47
2017-06-05T12:01:24.452Z,41.81
2017-06-05T12:02:24.213Z,44.12
2017-06-05T12:03:23.831Z,44.03
2017-06-05T12:04:23.781Z,43.06
2017-06-05T12:05:23.832Z,43.45
2017-06-05T12:06:24.174Z,44.12
2017-06-05T12:07:24.154Z,44.2
2017-06-05T12:08:24.222Z,46.34
2017-06-05T12:09:23.957Z,47.48
2017-06-05T12:10:24.168Z,45.75
2017-06-05T12:11:24.219Z,46.61
2017-06-05T12:12:24.219Z,47.38
2017-06-05T12:13:23.839Z,45.84
2017-06-05T12:14:24.229Z,46.59
2017-06-05T12:15:24.190Z,46.11
2017-06-05T12:16:23.880Z,44.27
2017-06-05T12:17:24.154Z,46.76
2017-06-05T12:18:24.212Z,45.03
2017-06-05T12:19:24.181Z,44.64
2017-06-05T12:20:24.275Z,46.76
2017-06-05T12:21:23.877Z,48.11
2017-06-05T12:22:23.875Z,45.87
2017-06-05T12:23:23.959Z,46.06
2017-06-05T12:24:24.258Z,48.49
2017-06-05T12:25:24.212Z,48.08
2017-06-05T12:26:24.214Z,46.93
2017-06-05T12:27:24.209Z,45.48
2017-06-05T12:28:24.199Z,46.15
2017-06-05T12:29:24.927Z,47.6
2017-06-05T12:30:24.210Z,48.38
2017-06-05T12:31:24.283Z,49.63
2017-06-05T12:32:24.230Z,53.29
2017-06-05T12:33:24.238Z,51.94
2017-06-05T12:34:23.899Z,49.24
2017-06-05T12:35:24.281Z,49.6
2017-06-05T12:36:24.211Z,51.53
2017-06-05T12:37:24.259Z,52.3
2017-06-05T12:38:23.916Z,52.78
2017-06-05T12:39:23.857Z,55.09
2017-06-05T12:40:24.213Z,54.3
2017-06-05T12:41:23.863Z,56.7
2017-06-05T12:42:23.852Z,55.74
2017-06-05T12:43:23.894Z,53.81
2017-06-05T12:44:24.192Z,51.5
2017-06-05T12:45:24.323Z,51.7
2017-06-05T12:46:24.181Z,52.27
2017-06-05T12:47:24.273Z,54.2
2017-06-05T12:48:23.941Z,54.87
2017-06-05T12:49:24.241Z,54.97
2017-06-05T12:50:24.177Z,53.91
2017-06-05T12:51:24.304Z,55.65
2017-06-05T12:52:24.342Z,54.97
2017-06-05T12:53:24.133Z,54.8
2017-06-05T12:54:23.927Z,55.67